Vermilion, Canada
Current Conditions -  °F | °C
As of 10:00 AM on Sunday 23 Nov 2014 (Local Time) from CYLL Reporting Station
Few Clouds Few Clouds  
Wind Chill: -2°   Ceiling: Unl
Heat Index: 10°   Visibility: 15mi
Dew Point:   Wind: 9mph
Humidity: 85%   Direction: 290°WNW
Pressure: 29.79"   Gusts: NA
Location:  53.35°N, 110.86°W
Report Text: CYLL 231700Z 29008KT 15SM FEW011 FEW035 M12/M14 A2979 RMK SC1SC1 SLP138
Loading
Personal Weather Stations






























Interactive Weather Map New forecast layout! Learn more

10-Day Weather Forecast

Advertisements
Track Severe Weather on mobile